Time;durP1;ratioP1;P1;durP2;ratioP2;P2;SDS_P1;SDS_P2;PMS_P1;PMS_P2;Temp;Humidity;BMP_temperature;BMP_pressure;BME280_temperature;BME280_humidity;BME280_pressure;Samples;Min_cycle;Max_cycle;Signal;HPM_P1;HPM_P2
2022/10/07 00:00:41;;;;;;;17.20;3.80;;;13.00;99.90;;;;;;20928543;28;20487;-76
2022/10/07 00:10:42;;;;;;;;;;;13.10;99.90;;;;;;20925277;28;20071;-75
2022/10/07 00:20:43;;;;;;;8.13;3.67;;;13.10;99.90;;;;;;20959851;28;19912;-76
2022/10/07 00:30:44;;;;;;;9.23;3.70;;;13.10;99.90;;;;;;20942245;28;20067;-76
2022/10/07 00:40:44;;;;;;;11.77;4.27;;;13.20;99.90;;;;;;20957585;28;20506;-75
2022/10/07 00:50:51;;;;;;;10.43;4.07;;;13.10;99.90;;;;;;20940058;28;20036;-75
2022/10/07 01:00:51;;;;;;;11.38;4.43;;;13.10;99.90;;;;;;21015295;28;20032;-75
2022/10/07 01:11:16;;;;;;;19.03;4.37;;;13.20;99.90;;;;;;20924337;28;20411;-75
2022/10/07 01:21:26;;;;;;;14.88;4.40;;;13.20;99.90;;;;;;20955472;28;20040;-76
2022/10/07 01:31:41;;;;;;;14.77;3.97;;;13.20;99.90;;;;;;20979998;28;20525;-75
2022/10/07 01:41:42;;;;;;;13.15;4.20;;;13.10;99.90;;;;;;20978773;28;20111;-75
2022/10/07 01:51:46;;;;;;;10.57;4.67;;;13.10;99.90;;;;;;20978349;28;20501;-75
2022/10/07 02:02:13;;;;;;;13.43;3.78;;;13.10;99.90;;;;;;20977131;28;20086;-75
2022/10/07 02:12:24;;;;;;;10.00;3.92;;;13.10;99.90;;;;;;20962356;28;20182;-75
2022/10/07 02:22:27;;;;;;;;;;;13.20;99.90;;;;;;20975978;28;20044;-75
2022/10/07 02:32:30;;;;;;;13.80;4.67;;;13.10;99.90;;;;;;20974409;28;19916;-75
2022/10/07 02:42:46;;;;;;;9.52;4.20;;;13.00;99.90;;;;;;20973969;28;20572;-75
2022/10/07 02:52:51;;;;;;;19.35;5.85;;;13.10;99.90;;;;;;20973811;28;20036;-75
2022/10/07 03:02:56;;;;;;;12.15;5.22;;;13.00;99.90;;;;;;20973128;28;20044;-75
2022/10/07 03:13:04;;;;;;;13.82;5.20;;;13.00;99.90;;;;;;20972310;28;20048;-76
2022/10/07 03:23:08;;;;;;;20.17;5.38;;;13.10;99.90;;;;;;20975893;28;20521;-75
2022/10/07 03:33:09;;;;;;;12.55;5.80;;;13.00;99.90;;;;;;20999513;28;20098;-76
2022/10/07 03:43:10;;;;;;;13.90;5.10;;;13.10;99.90;;;;;;21016913;28;20033;-75
2022/10/07 03:53:11;;;;;;;10.17;4.77;;;13.20;99.90;;;;;;20998897;28;20041;-75
2022/10/07 04:03:14;;;;;;;9.43;4.97;;;13.20;99.90;;;;;;21016890;28;20360;-75
2022/10/07 04:13:15;;;;;;;15.48;6.43;;;13.20;99.90;;;;;;20998268;28;20044;-75
2022/10/07 04:23:16;;;;;;;18.27;7.50;;;13.10;99.90;;;;;;20998323;28;20170;-75
2022/10/07 04:33:22;;;;;;;16.88;6.53;;;13.00;99.90;;;;;;20997138;28;20048;-75
2022/10/07 04:43:26;;;;;;;14.32;7.63;;;13.00;99.90;;;;;;20982994;28;20036;-75
2022/10/07 04:53:38;;;;;;;25.80;7.50;;;13.00;99.90;;;;;;20983474;28;20052;-74
2022/10/07 05:03:41;;;;;;;14.00;6.40;;;13.10;99.90;;;;;;20982504;28;20123;-75
2022/10/07 05:13:44;;;;;;;11.80;6.18;;;13.10;99.90;;;;;;20981467;28;20048;-75
2022/10/07 05:23:45;;;;;;;17.20;6.07;;;13.00;99.90;;;;;;20998590;28;20064;-75
2022/10/07 05:33:51;;;;;;;11.63;5.82;;;13.00;99.90;;;;;;20964460;28;20036;-76
2022/10/07 05:43:54;;;;;;;14.65;5.70;;;13.00;99.90;;;;;;20980371;28;20040;-75
2022/10/07 05:53:56;;;;;;;12.20;5.67;;;13.10;99.90;;;;;;20979795;28;20075;-75
2022/10/07 06:03:59;;;;;;;9.45;4.00;;;13.20;99.90;;;;;;20977727;28;20040;-76
2022/10/07 06:14:05;;;;;;;9.45;5.05;;;13.30;99.90;;;;;;20983634;28;20059;-77
2022/10/07 06:24:06;;;;;;;14.10;5.55;;;13.50;99.90;;;;;;20927047;28;20049;-78
2022/10/07 06:34:08;;;;;;;12.93;5.43;;;13.70;99.90;;;;;;20911884;28;20078;-77
2022/10/07 06:44:10;;;;;;;8.60;4.50;;;13.60;99.90;;;;;;20911725;28;20044;-76
2022/10/07 06:54:11;;;;;;;13.10;4.70;;;13.80;99.90;;;;;;20874781;28;20415;-76
2022/10/07 07:04:13;;;;;;;9.68;4.25;;;14.10;99.90;;;;;;20873450;28;20123;-76
2022/10/07 07:14:15;;;;;;;8.73;3.92;;;14.40;99.90;;;;;;20911662;28;20090;-76
2022/10/07 07:24:21;;;;;;;10.68;4.60;;;14.60;99.90;;;;;;20971849;28;20593;-76
2022/10/07 07:34:22;;;;;;;8.73;3.70;;;14.60;99.90;;;;;;20989625;28;20041;-77
2022/10/07 07:44:24;;;;;;;6.75;3.88;;;14.90;99.90;;;;;;20989462;28;20820;-76
2022/10/07 07:54:29;;;;;;;10.48;4.00;;;15.00;99.90;;;;;;20954302;28;20041;-77
2022/10/07 08:04:30;;;;;;;;;;;15.20;99.90;;;;;;20993456;22;20051;-83
2022/10/07 08:14:31;;;;;;;10.43;4.43;;;15.40;99.90;;;;;;21000816;28;20373;-82
2022/10/07 08:24:32;;;;;;;13.38;5.07;;;15.60;99.90;;;;;;21036538;28;20408;-83
2022/10/07 08:34:35;;;;;;;10.13;3.50;;;15.60;99.90;;;;;;21042778;28;20040;-82
2022/10/07 08:44:54;;;;;;;8.45;4.70;;;15.90;99.90;;;;;;21062473;28;20037;-82
2022/10/07 08:54:55;;;;;;;12.23;5.10;;;16.00;99.90;;;;;;21076067;28;20036;-81
2022/10/07 09:05:19;;;;;;;109.77;34.70;;;16.30;99.90;;;;;;21094437;28;20046;-82
2022/10/07 09:15:51;;;;;;;95.45;40.17;;;16.40;99.90;;;;;;21095111;28;20051;-83
2022/10/07 09:25:52;;;;;;;24.80;13.07;;;16.50;99.90;;;;;;21106329;28;20039;-82
2022/10/07 09:36:04;;;;;;;10.47;6.67;;;16.90;99.90;;;;;;21106512;28;20075;-82
2022/10/07 09:46:06;;;;;;;19.05;9.32;;;17.60;99.90;;;;;;21094002;28;20050;-82
2022/10/07 09:56:26;;;;;;;;;;;17.50;99.90;;;;;;21075111;28;20036;-82
2022/10/07 10:06:27;;;;;;;15.60;7.35;;;17.60;99.90;;;;;;21072387;28;20119;-82
2022/10/07 10:16:39;;;;;;;14.87;7.07;;;17.90;99.90;;;;;;21087034;28;20048;-82
2022/10/07 10:27:04;;;;;;;15.90;7.63;;;18.30;99.90;;;;;;21102977;28;20036;-82
2022/10/07 10:37:17;;;;;;;21.08;10.38;;;20.40;99.90;;;;;;21081292;28;20510;-82
2022/10/07 10:47:56;;;;;;;14.60;6.35;;;22.00;99.90;;;;;;21102040;28;20036;-83
2022/10/07 10:58:05;;;;;;;14.00;6.30;;;23.10;99.90;;;;;;21071930;28;20028;-82
2022/10/07 11:08:16;;;;;;;12.43;5.80;;;22.90;99.90;;;;;;21020700;28;1161093;-83
2022/10/07 11:18:36;;;;;;;13.68;6.03;;;23.40;99.90;;;;;;21068155;28;20048;-82
2022/10/07 11:28:41;;;;;;;16.88;6.35;;;22.90;99.90;;;;;;21046209;28;20501;-83
2022/10/07 11:38:44;;;;;;;11.35;6.00;;;23.70;99.90;;;;;;21093026;28;20076;-84
2022/10/07 11:48:55;;;;;;;13.05;5.25;;;24.40;99.90;;;;;;21115423;28;20062;-83
2022/10/07 11:59:01;;;;;;;10.30;4.70;;;24.50;99.90;;;;;;21118996;28;20442;-83
2022/10/07 12:09:42;;;;;;;14.73;5.07;;;24.20;99.90;;;;;;21102543;28;20040;-83
2022/10/07 12:19:43;;;;;;;8.90;4.90;;;23.80;99.90;;;;;;21077884;28;20047;-83
2022/10/07 12:29:58;;;;;;;6.25;4.10;;;23.90;99.90;;;;;;21083711;28;20044;-83
2022/10/07 12:40:04;;;;;;;8.68;3.70;;;23.90;99.90;;;;;;21016346;28;20041;-83
2022/10/07 12:50:10;;;;;;;11.77;4.68;;;25.60;99.90;;;;;;21012850;28;20047;-82
2022/10/07 13:00:23;;;;;;;8.15;4.28;;;24.30;99.90;;;;;;21032430;28;20104;-82
2022/10/07 13:10:45;;;;;;;15.68;4.80;;;24.60;99.90;;;;;;21013771;28;20547;-81
2022/10/07 13:21:11;;;;;;;11.30;3.80;;;23.20;99.90;;;;;;20996890;28;20420;-82
2022/10/07 13:31:19;;;;;;;8.13;4.53;;;24.10;99.90;;;;;;21059273;28;20043;-83
2022/10/07 13:41:25;;;;;;;15.20;4.50;;;24.20;99.90;;;;;;21031934;28;20180;-82
2022/10/07 13:51:25;;;;;;;16.17;4.35;;;25.00;99.90;;;;;;21049626;28;20127;-82
2022/10/07 14:01:30;;;;;;;14.27;4.63;;;25.20;99.90;;;;;;21066007;28;20040;-82
2022/10/07 14:11:31;;;;;;;5.15;3.42;;;24.80;99.90;;;;;;21038716;22;20721;-78
2022/10/07 14:21:39;;;;;;;11.25;5.55;;;25.20;99.90;;;;;;20980052;28;20068;-77
2022/10/07 14:42:00;;;;;;;9.45;3.88;;;24.40;99.90;;;;;;20909698;28;20037;-77
2022/10/07 14:52:02;;;;;;;12.52;4.45;;;24.50;99.90;;;;;;20909439;28;20080;-77
2022/10/07 15:02:03;;;;;;;11.15;4.53;;;24.90;99.90;;;;;;20909022;28;20037;-78
2022/10/07 15:12:05;;;;;;;12.63;4.10;;;24.70;99.90;;;;;;20985913;28;20083;-76
2022/10/07 15:22:05;;;;;;;7.88;3.95;;;24.50;99.90;;;;;;20989390;28;20286;-77
2022/10/07 15:32:07;;;;;;;;;;;24.20;99.90;;;;;;20988407;28;20403;-76
2022/10/07 15:42:08;;;;;;;8.68;4.22;;;23.30;99.90;;;;;;20998343;28;19919;-77
2022/10/07 15:52:10;;;;;;;;;;;22.20;99.90;;;;;;20982820;28;20072;-77
2022/10/07 16:02:16;;;;;;;38.25;14.50;;;21.60;99.90;;;;;;20983531;28;20125;-76
2022/10/07 16:12:17;;;;;;;22.42;11.15;;;21.00;99.90;;;;;;20918272;28;20055;-76
2022/10/07 16:22:18;;;;;;;235.43;103.60;;;20.50;99.90;;;;;;20909343;28;20120;-76
2022/10/07 16:32:19;;;;;;;17.23;7.63;;;19.50;99.90;;;;;;20921763;28;20033;-76
2022/10/07 16:42:20;;;;;;;15.23;5.73;;;19.20;99.90;;;;;;20939145;28;20040;-76
2022/10/07 16:52:21;;;;;;;11.32;5.03;;;18.40;99.90;;;;;;20998425;28;20379;-76
2022/10/07 17:02:21;;;;;;;63.27;24.57;;;18.00;99.90;;;;;;20979400;28;20040;-76
2022/10/07 17:12:23;;;;;;;13.77;6.57;;;17.60;99.90;;;;;;20901101;28;20045;-76
2022/10/07 17:22:24;;;;;;;17.75;10.23;;;17.30;99.90;;;;;;20913112;28;20051;-76
2022/10/07 17:32:26;;;;;;;8.83;6.50;;;17.00;99.90;;;;;;20911811;28;20131;-76
2022/10/07 17:42:26;;;;;;;10.32;5.85;;;16.40;99.90;;;;;;20893403;28;20503;-76
2022/10/07 17:52:27;;;;;;;29.80;11.93;;;16.40;99.90;;;;;;20913506;28;20040;-76
2022/10/07 18:02:28;;;;;;;16.43;7.73;;;16.30;99.90;;;;;;20910204;28;20388;-76
2022/10/07 18:22:57;;;;;;;20.73;8.35;;;16.20;99.90;;;;;;21076673;28;20046;-76
2022/10/07 18:32:58;;;;;;;12.82;7.28;;;15.70;99.90;;;;;;21067283;28;20036;-76
2022/10/07 18:42:59;;;;;;;22.37;8.30;;;15.80;99.90;;;;;;21076867;28;20119;-76
2022/10/07 18:53:00;;;;;;;18.47;9.13;;;15.60;99.90;;;;;;21059894;28;20040;-76
2022/10/07 19:03:03;;;;;;;28.30;11.63;;;15.30;99.90;;;;;;21044969;28;20098;-76
2022/10/07 19:23:25;;;;;;;24.63;9.60;;;14.80;99.90;;;;;;20992208;28;20068;-76
2022/10/07 19:33:26;;;;;;;18.23;9.23;;;14.80;99.90;;;;;;20941509;28;20040;-77
2022/10/07 19:43:26;;;;;;;13.57;6.63;;;14.90;99.90;;;;;;20956038;28;20059;-77
2022/10/07 19:53:32;;;;;;;16.77;9.87;;;14.80;99.90;;;;;;21029759;28;20036;-76
2022/10/07 20:03:33;;;;;;;16.10;8.95;;;14.70;99.90;;;;;;21036960;22;20610;-79
2022/10/07 20:13:35;;;;;;;18.75;8.65;;;14.80;99.90;;;;;;21116594;28;20253;-80
2022/10/07 20:23:41;;;;;;;13.73;7.40;;;14.90;99.90;;;;;;21123940;28;20027;-80
2022/10/07 20:33:44;;;;;;;23.10;10.70;;;14.80;99.90;;;;;;21065622;28;20445;-79
2022/10/07 20:43:48;;;;;;;10.73;7.07;;;14.90;99.90;;;;;;21087868;28;20123;-79
2022/10/07 20:53:50;;;;;;;12.45;7.63;;;14.90;99.90;;;;;;21123327;28;20044;-79
2022/10/07 21:03:51;;;;;;;15.30;7.10;;;14.60;99.90;;;;;;21068263;28;20278;-79
2022/10/07 21:13:55;;;;;;;19.37;8.13;;;14.60;99.90;;;;;;21060876;28;20036;-80
2022/10/07 21:23:56;;;;;;;18.42;9.88;;;14.50;99.90;;;;;;21078276;28;20044;-80
2022/10/07 21:34:00;;;;;;;15.60;8.47;;;14.30;99.90;;;;;;21091229;28;20135;-80
2022/10/07 21:44:03;;;;;;;18.67;8.32;;;14.10;99.90;;;;;;21051750;28;20109;-80
2022/10/07 21:54:04;;;;;;;22.95;10.75;;;13.70;99.90;;;;;;21114209;28;20040;-80
2022/10/07 22:04:06;;;;;;;17.93;8.70;;;13.60;99.90;;;;;;21072578;28;20491;-80
2022/10/07 22:14:09;;;;;;;23.08;9.13;;;13.70;99.90;;;;;;21057357;28;20043;-80
2022/10/07 22:24:11;;;;;;;20.33;9.80;;;13.70;99.90;;;;;;21085480;28;20243;-80
2022/10/07 22:35:26;;;;;;;;;;;13.60;99.90;;;;;;21092517;28;20036;-79
2022/10/07 22:44:32;;;;;;;27.30;11.82;;;13.50;99.90;;;;;;21112245;28;20002;-80
2022/10/07 22:54:33;;;;;;;17.87;9.47;;;13.50;99.90;;;;;;21054346;28;20078;-80
2022/10/07 23:04:34;;;;;;;20.83;9.63;;;13.40;99.90;;;;;;21070932;28;20553;-79
2022/10/07 23:14:35;;;;;;;20.73;10.30;;;13.50;99.90;;;;;;21074726;28;20127;-79
2022/10/07 23:24:36;;;;;;;18.77;10.40;;;13.20;99.90;;;;;;21088151;28;20075;-80
2022/10/07 23:34:37;;;;;;;19.23;10.53;;;13.30;99.90;;;;;;21071137;28;20128;-80
2022/10/07 23:44:37;;;;;;;16.07;9.00;;;13.30;99.90;;;;;;21089331;28;20020;-80
2022/10/07 23:54:38;;;;;;;13.50;8.43;;;13.20;99.90;;;;;;21076920;28;20036;-80
